^^
Datos históricos de la estación: Murcia-Puente Tocinos
Diario Informe para Octubre 20, 2019 Unidades:  Métrico    Inglés   Ambas
Diario Semanal Mensual Anual Configurable
  Máximo: Mínimo: Media:
Temperatura: 22.3 °C 15.7 °C 18.5 °C
Punto de rocio: 18.5 °C 10.7 °C 12.1 °C
Humedad: 79% 56% 67%
Velocidad viento: 9.7km/h 0.0km/h 4.2km/h
Racha viento: 17.7km/h - -
Viento- - South
Presión: 1014.0 hPa 1007.8 hPa -
Precipitación: 1.2 mm    
Historical Graphs
 
 
Tabla de datos para Octubre 20, 2019
Hora Temperatura Punto de rocio Presión Viento Velocidad viento Racha viento Humedad Intensidad lluvia(por hora) Nubes
14:14 18.0 °C 12.9 °C 1007.8 hPa NE 2.9 km/h   72% 0.0 mm FEW
14:15 22.3 °C 18.5 °C 1010.2 hPa Calm   3.2 km/h 79% 0.0 mm FEW
14:20 18.0 °C 12.9 °C 1008.9 hPa WNW 2.9 km/h 5.6 km/h 72% 0.0 mm RA
14:25 18.1 °C 12.8 °C 1008.9 hPa NNW 3.2 km/h 9.7 km/h 71% 0.0 mm RA
14:30 18.2 °C 13.1 °C 1008.9 hPa WNW 3.2 km/h 11.3 km/h 72% 0.0 mm FEW
14:35 18.3 °C 12.9 °C 1008.9 hPa WNW 4.8 km/h 9.7 km/h 71% 0.0 mm FEW
14:40 18.3 °C 12.7 °C 1008.9 hPa WNW 4.8 km/h 9.7 km/h 70% 0.0 mm FEW
14:45 18.3 °C 12.7 °C 1008.9 hPa West 4.8 km/h 8.0 km/h 70% 0.0 mm FEW
14:50 18.3 °C 12.3 °C 1008.9 hPa West 4.8 km/h 9.7 km/h 68% 0.0 mm -RA
14:55 18.3 °C 12.3 °C 1008.6 hPa SW 4.8 km/h 11.3 km/h 68% 0.0 mm -RA
15:00 18.3 °C 12.5 °C 1008.6 hPa South 4.8 km/h 11.3 km/h 69% 0.0 mm -RA
15:05 18.3 °C 12.6 °C 1008.6 hPa SSW 8.0 km/h 12.9 km/h 69% 0.0 mm -RA
15:10 18.4 °C 12.4 °C 1009.4 hPa South 8.0 km/h 9.7 km/h 68% 0.0 mm -RA
15:15 18.6 °C 12.3 °C 1009.4 hPa SSE 8.0 km/h 6.4 km/h 67% 0.0 mm -RA
15:20 18.7 °C 11.7 °C 1009.4 hPa WSW 8.0 km/h 14.5 km/h 64% 0.0 mm -RA
15:25 18.7 °C 12.4 °C 1009.2 hPa West 4.8 km/h 17.7 km/h 67% 0.0 mm -RA
15:30 18.7 °C 12.4 °C 1009.2 hPa WNW 4.8 km/h 9.7 km/h 67% 0.0 mm -RA
15:35 18.7 °C 12.7 °C 1009.2 hPa NW 8.0 km/h 11.3 km/h 68% 0.0 mm -RA
15:40 18.6 °C 12.8 °C 1008.8 hPa NW 8.0 km/h 11.3 km/h 69% 0.0 mm -RA
15:45 18.4 °C 12.7 °C 1008.8 hPa West 4.8 km/h 11.3 km/h 69% 0.0 mm -RA
15:50 18.4 °C 12.4 °C 1008.8 hPa West 4.8 km/h 8.0 km/h 68% 0.0 mm -RA
15:55 18.4 °C 12.2 °C 1009.0 hPa WSW 3.2 km/h 8.0 km/h 67% 0.0 mm -RA
16:00 18.6 °C 12.5 °C 1009.0 hPa West 3.2 km/h 8.0 km/h 68% 0.0 mm -RA
16:05 18.6 °C 12.6 °C 1009.0 hPa WNW 3.2 km/h 8.0 km/h 68% 0.0 mm -RA
16:10 18.6 °C 12.6 °C 1008.9 hPa West 3.9 km/h 5.6 km/h 68% 0.0 mm -RA
16:15 18.7 °C 12.4 °C 1008.9 hPa West 3.2 km/h 8.0 km/h 67% 0.0 mm -RA
16:20 18.7 °C 12.7 °C 1008.9 hPa West 3.2 km/h 11.3 km/h 68% 0.0 mm -RA
16:25 18.7 °C 12.7 °C 1009.3 hPa WNW 4.8 km/h 11.3 km/h 68% 0.0 mm FEW
16:30 18.8 °C 12.5 °C 1009.3 hPa WNW 4.8 km/h 12.9 km/h 67% 0.0 mm -RA
16:35 18.8 °C 12.6 °C 1009.3 hPa West 8.0 km/h 11.3 km/h 67% 0.0 mm FEW
16:40 19.0 °C 12.2 °C 1009.2 hPa West 8.0 km/h 11.3 km/h 65% 0.0 mm -RA
16:45 19.1 °C 12.4 °C 1009.2 hPa SSW 4.8 km/h 8.0 km/h 65% 0.0 mm FEW
16:50 19.2 °C 12.2 °C 1009.2 hPa South 4.8 km/h 8.0 km/h 64% 0.0 mm FEW
16:55 19.4 °C 12.2 °C 1009.1 hPa SSW 3.2 km/h 4.8 km/h 63% 0.0 mm FEW
17:00 19.5 °C 12.3 °C 1009.1 hPa SSE 3.2 km/h 8.0 km/h 63% 0.0 mm FEW
17:05 19.6 °C 11.4 °C 1009.1 hPa SSE 3.2 km/h 9.7 km/h 59% 0.0 mm FEW
17:10 19.7 °C 11.4 °C 1009.5 hPa SSW 3.2 km/h 12.9 km/h 59% 0.0 mm FEW
17:15 19.7 °C 11.2 °C 1009.5 hPa West 8.0 km/h 9.7 km/h 58% 0.0 mm FEW
17:20 19.7 °C 11.2 °C 1009.5 hPa NW 8.0 km/h 4.8 km/h 58% 0.0 mm FEW
17:25 19.9 °C 12.9 °C 1009.5 hPa NE 3.2 km/h 8.0 km/h 64% 0.0 mm FEW
17:30 19.8 °C 12.8 °C 1009.5 hPa SSE 3.2 km/h 8.0 km/h 64% 0.0 mm FEW
17:35 19.7 °C 12.4 °C 1009.5 hPa SSW 3.2 km/h 9.7 km/h 63% 0.0 mm FEW
17:40 19.7 °C 12.2 °C 1009.7 hPa SW 3.2 km/h 8.0 km/h 62% 0.0 mm FEW
17:45 19.7 °C 11.2 °C 1009.7 hPa West 3.2 km/h 8.0 km/h 58% 0.0 mm FEW
17:50 19.8 °C 11.3 °C 1009.7 hPa West 3.2 km/h 4.8 km/h 58% 0.0 mm FEW
17:55 19.9 °C 10.8 °C 1009.5 hPa West 3.2 km/h 3.2 km/h 56% 0.0 mm FEW
18:00 20.2 °C 11.9 °C 1009.5 hPa West 3.2 km/h 8.0 km/h 59% 0.0 mm FEW
18:05 20.1 °C 12.3 °C 1009.5 hPa SE 3.2 km/h 8.0 km/h 61% 0.0 mm FEW
18:10 19.9 °C 12.7 °C 1009.5 hPa SE 3.2 km/h 11.3 km/h 63% 0.0 mm FEW
18:15 19.7 °C 12.9 °C 1009.5 hPa SE 8.0 km/h 14.5 km/h 65% 0.0 mm FEW
18:20 19.5 °C 12.6 °C 1009.5 hPa SE 8.0 km/h 12.9 km/h 64% 0.0 mm CLR
18:25 19.4 °C 12.4 °C 1009.7 hPa SE 8.0 km/h 9.7 km/h 64% 0.0 mm CLR
18:30 19.4 °C 12.4 °C 1009.7 hPa SSE 8.0 km/h 11.3 km/h 64% 0.0 mm CLR
18:35 19.3 °C 12.4 °C 1009.7 hPa SSE 8.0 km/h 9.7 km/h 64% 0.0 mm CLR
18:40 19.4 °C 12.2 °C 1010.0 hPa South 8.0 km/h 8.0 km/h 63% 0.0 mm CLR
18:45 19.7 °C 12.4 °C 1010.0 hPa South 4.8 km/h 4.8 km/h 63% 0.0 mm CLR
18:50 19.9 °C 12.2 °C 1010.0 hPa SW 4.8 km/h 6.4 km/h 61% 0.0 mm CLR
18:55 20.1 °C 12.1 °C 1009.8 hPa WSW 3.2 km/h 9.7 km/h 60% 0.0 mm CLR
19:00 20.1 °C 11.8 °C 1009.8 hPa WSW 3.2 km/h 9.7 km/h 59% 0.0 mm FEW
19:05 20.0 °C 12.0 °C 1009.8 hPa West 4.8 km/h 8.0 km/h 60% 0.0 mm CLR
19:10 19.9 °C 11.9 °C 1010.0 hPa West 4.8 km/h 8.0 km/h 60% 0.0 mm CLR
19:15 19.8 °C 11.3 °C 1010.0 hPa West 3.2 km/h 9.7 km/h 58% 0.0 mm CLR
19:20 19.7 °C 10.9 °C 1010.0 hPa SW 3.2 km/h 8.0 km/h 57% 0.0 mm CLR
19:25 19.7 °C 10.7 °C 1010.6 hPa SSE 4.7 km/h 9.3 km/h 56% 0.0 mm CLR
19:30 19.7 °C 11.7 °C 1010.6 hPa SSE 3.2 km/h 9.7 km/h 60% 0.0 mm CLR
19:35 19.5 °C 12.5 °C 1010.6 hPa SE 4.8 km/h 16.1 km/h 64% 0.0 mm CLR
19:40 19.1 °C 12.6 °C 1010.8 hPa SSE 4.8 km/h 12.9 km/h 66% 0.0 mm CLR
19:45 18.8 °C 12.3 °C 1010.8 hPa South 9.7 km/h 12.9 km/h 66% 0.0 mm CLR
19:50 18.8 °C 12.1 °C 1010.8 hPa SSW 9.7 km/h 11.3 km/h 65% 0.0 mm CLR
19:55 18.8 °C 12.1 °C 1010.8 hPa SSW 8.0 km/h 9.7 km/h 65% 0.0 mm CLR
20:00 18.8 °C 11.8 °C 1010.8 hPa SW 8.0 km/h 9.7 km/h 64% 0.0 mm FEW
20:05 18.8 °C 11.6 °C 1010.8 hPa SW 4.8 km/h 9.7 km/h 63% 0.0 mm CLR
20:10 18.9 °C 11.7 °C 1010.9 hPa SW 4.8 km/h 8.0 km/h 63% 0.0 mm CLR
20:15 18.9 °C 11.4 °C 1010.9 hPa SSW 4.8 km/h 9.7 km/h 62% 0.0 mm CLR
20:20 19.1 °C 11.3 °C 1010.9 hPa SSW 4.8 km/h 9.7 km/h 61% 0.0 mm CLR
20:25 19.1 °C 11.4 °C 1011.4 hPa South 4.8 km/h 9.7 km/h 61% 0.0 mm CLR
20:30 19.1 °C 11.9 °C 1011.4 hPa SSE 4.8 km/h 11.3 km/h 63% 0.0 mm CLR
20:35 18.8 °C 11.8 °C 1011.4 hPa SE 8.0 km/h 9.7 km/h 64% 0.0 mm CLR
20:40 18.6 °C 11.4 °C 1011.4 hPa SSE 8.0 km/h 9.7 km/h 63% 0.0 mm CLR
20:45 18.4 °C 11.3 °C 1011.4 hPa South 4.8 km/h 8.0 km/h 63% 0.0 mm CLR
20:50 18.4 °C 11.2 °C 1011.4 hPa South 4.8 km/h 8.0 km/h 63% 0.0 mm CLR
20:55 18.4 °C 11.4 °C 1011.5 hPa South 3.2 km/h 4.8 km/h 64% 0.0 mm CLR
21:00 18.4 °C 11.7 °C 1011.5 hPa South 3.2 km/h 6.4 km/h 65% 0.0 mm FEW
21:05 18.4 °C 11.7 °C 1011.5 hPa South 3.2 km/h 8.0 km/h 65% 0.0 mm CLR
21:10 18.4 °C 11.7 °C 1011.9 hPa South 3.2 km/h 8.0 km/h 65% 0.0 mm CLR
21:15 18.4 °C 11.9 °C 1011.9 hPa SSE 3.2 km/h 6.4 km/h 66% 0.0 mm CLR
21:20 18.3 °C 11.8 °C 1011.9 hPa SSE 3.2 km/h 3.2 km/h 66% 0.0 mm CLR
21:25 18.2 °C 12.0 °C 1012.0 hPa SSE 1.6 km/h 1.6 km/h 67% 0.0 mm CLR
21:30 18.1 °C 12.1 °C 1012.0 hPa SSE 2.3 km/h 3.7 km/h 68% 0.0 mm CLR
21:35 18.0 °C 12.2 °C 1012.0 hPa Calm   4.8 km/h 69% 0.0 mm RA
21:40 17.8 °C 12.1 °C 1012.2 hPa Calm   4.8 km/h 69% 0.0 mm RA
21:45 17.7 °C 12.2 °C 1012.2 hPa WNW 3.2 km/h 4.8 km/h 70% 0.0 mm CLR
21:50 17.4 °C 12.3 °C 1012.2 hPa NNW 3.2 km/h 8.0 km/h 72% 0.0 mm CLR
21:55 17.2 °C 12.1 °C 1012.6 hPa NNE 3.2 km/h 8.0 km/h 72% 0.0 mm CLR
22:00 17.1 °C 12.4 °C 1012.6 hPa NNE 3.2 km/h 8.0 km/h 74% 0.0 mm FEW
22:05 16.9 °C 12.2 °C 1012.6 hPa NNE 3.2 km/h 3.2 km/h 74% 0.0 mm CLR
22:10 16.9 °C 12.2 °C 1012.7 hPa NNE 3.2 km/h 4.8 km/h 74% 0.0 mm CLR
22:15 16.8 °C 12.1 °C 1012.7 hPa NNE 1.6 km/h 6.4 km/h 74% 0.0 mm CLR
22:20 16.8 °C 12.2 °C 1012.7 hPa NNE 1.6 km/h 4.8 km/h 74% 0.0 mm CLR
22:25 16.8 °C 11.9 °C 1012.9 hPa NNE 3.2 km/h 4.8 km/h 73% 0.0 mm CLR
22:30 16.7 °C 11.8 °C 1012.9 hPa NNE 3.2 km/h   73% 0.0 mm CLR
22:35 16.8 °C 11.9 °C 1012.9 hPa NNE 1.6 km/h   73% 0.0 mm CLR
22:40 16.7 °C 12.1 °C 1013.2 hPa NNE 1.6 km/h 1.6 km/h 74% 0.0 mm CLR
22:45 16.8 °C 12.3 °C 1013.2 hPa Calm   1.6 km/h 75% 0.0 mm CLR
22:50 16.8 °C 12.1 °C 1013.2 hPa Calm   3.2 km/h 74% 0.0 mm CLR
22:55 16.8 °C 11.9 °C 1013.4 hPa Calm     73% 0.0 mm CLR
23:00 16.8 °C 12.1 °C 1013.4 hPa Calm   6.4 km/h 74% 0.0 mm FEW
23:05 16.7 °C 11.6 °C 1013.4 hPa NE 1.6 km/h 6.4 km/h 72% 0.0 mm CLR
23:10 16.7 °C 12.0 °C 1013.8 hPa NE 1.6 km/h 8.0 km/h 74% 0.0 mm CLR
23:15 16.5 °C 11.7 °C 1013.8 hPa ENE 3.2 km/h 8.0 km/h 73% 0.0 mm CLR
23:20 16.4 °C 11.8 °C 1013.8 hPa ENE 3.2 km/h 6.4 km/h 74% 0.0 mm CLR
23:25 16.2 °C 11.3 °C 1013.9 hPa ENE 3.2 km/h 8.0 km/h 73% 0.0 mm CLR
23:30 16.2 °C 11.3 °C 1013.9 hPa ENE 3.2 km/h 4.8 km/h 73% 0.0 mm CLR
23:35 16.1 °C 11.4 °C 1013.9 hPa East 3.2 km/h 8.0 km/h 74% 0.0 mm CLR
23:40 16.0 °C 11.4 °C 1014.0 hPa East 3.2 km/h 6.4 km/h 74% 0.0 mm CLR
23:45 15.8 °C 11.4 °C 1014.0 hPa East 3.2 km/h 6.4 km/h 75% 0.0 mm CLR
23:50 15.8 °C 11.6 °C 1014.0 hPa East 3.2 km/h 8.0 km/h 76% 0.0 mm FEW
23:55 15.7 °C 11.5 °C 1013.8 hPa ESE 3.2 km/h 8.0 km/h 76% 0.0 mm FEW
Murcia-Puente Tocinos, España
Compliments of Weather Underground - 1.75 mb

La estación de MeteoMurcia.com, publica sus datos en los siguientes proyectos:

Weather Underground PWS IMURCIAP2 Meteoclimatic www.awekas.at

W3Counter
Web Analytics